Stadtlohn-Vreden Airfield

EDLS · Renania Settentrionale-Vestfalia, Germania

6 ottobre 2022

Tempo Codice Tempo metereologico Temp. Vista Base nuvolosa Vento METAR/SPECI
15:20
V
17 °C 10 km+ - 230° 230° 10 kt METAR EDLW 061320Z 23010KT CAVOK 17/07 Q1030
14:50
V
17 °C 10 km+ - 240° 240° 10 kt METAR EDLW 061250Z 24010KT 220V280 CAVOK 17/08 Q1030
14:20
V
16 °C 10 km+ - 240° 240° 12 kt METAR EDLW 061220Z 24012KT 9999 FEW043 16/07 Q1030
13:50
V
16 °C 10 km+ - 230° 230° 11 kt METAR EDLW 061150Z 23011KT 9999 SCT039 16/07 Q1030
13:20
V
16 °C 10 km+ - 230° 230° 13 kt METAR EDLW 061120Z 23013KT 9999 SCT035 16/07 Q1030
12:50
V
15 °C 10 km+ - 240° 240° 11 kt METAR EDLW 061050Z 24011KT 9999 SCT028 15/09 Q1030
12:20
V
16 °C 10 km+ - 230° 230° 11 kt METAR EDLW 061020Z 23011KT 200V260 9999 SCT027 16/10 Q1030
11:50
V
15 °C 10 km+ - 220° 220° 12 kt METAR EDLW 060950Z 22012KT 9999 SCT025 15/09 Q1030
11:20
V
14 °C 10 km+ - 230° 230° 11 kt METAR EDLW 060920Z 23011KT 9999 FEW024 14/09 Q1029
10:50
V
14 °C 10 km+ - 230° 230° 11 kt METAR EDLW 060850Z 23011KT CAVOK 14/10 Q1029
10:20
V
13 °C 10 km+ - 240° 240° 10 kt METAR EDLW 060820Z 24010KT CAVOK 13/09 Q1029
09:50
V
12 °C 10 km+ - 230° 230° 12 kt METAR EDLW 060750Z 23012KT CAVOK 12/09 Q1028
09:20
V
12 °C 10 km+ - 230° 230° 10 kt METAR EDLW 060720Z 23010KT CAVOK 12/09 Q1028
08:50
V
11 °C 10 km+ - 220° 220° 10 kt METAR EDLW 060650Z 22010KT CAVOK 11/09 Q1027
08:20
V
11 °C 10 km+ - 220° 220° 11 kt METAR EDLW 060620Z 22011KT CAVOK 11/09 Q1027
07:50
V
11 °C 10 km+ - 230° 230° 10 kt METAR EDLW 060550Z 23010KT CAVOK 11/09 Q1026
07:20
V
11 °C 10 km+ - 220° 220° 10 kt METAR EDLW 060520Z 22010KT CAVOK 11/09 Q1026
06:50
V
11 °C 10 km+ - 220° 220° 11 kt METAR EDLW 060450Z 22011KT CAVOK 11/09 Q1025
06:20
V
11 °C 10 km+ - 220° 220° 10 kt METAR EDLW 060420Z 22010KT CAVOK 11/09 Q1025
05:50
V
12 °C 10 km+ - 220° 220° 10 kt METAR EDLW 060350Z 22010KT 9999 SCT036 12/09 Q1024
05:20
V
12 °C 10 km+ - 220° 220° 10 kt METAR EDLW 060320Z 22010KT 9999 FEW034 12/10 Q1024
04:50
V
12 °C 10 km+ - 230° 230° 13 kt METAR EDLW 060250Z AUTO 23013KT 9999 // NCD 12/10 Q1023
04:20
V
12 °C 10 km+ - 230° 230° 12 kt METAR EDLW 060220Z AUTO 23012KT 9999 // NCD 12/10 Q1023
03:50
V
12 °C 10 km+ - 230° 230° 12 kt METAR EDLW 060150Z AUTO 23012KT 9999 // NCD 12/09 Q1023
03:20
V
13 °C 10 km+ 5.800 ft 230° 230° 13 kt METAR EDLW 060120Z AUTO 23013KT 9999 // BKN058/// 13/10 Q1022
02:50
V
13 °C 10 km+ 4.300 ft 230° 230° 13 kt METAR EDLW 060050Z AUTO 23013KT 9999 // OVC043/// 13/10 Q1022
02:20
V
13 °C 10 km+ 3.700 ft 240° 240° 12 kt METAR EDLW 060020Z AUTO 24012KT 9999 // FEW011/// BKN037/// 13/11 Q1021
01:50
I
14 °C 5 km 900 ft 250° 250° 15 - 25 kt METAR EDLW 052350Z AUTO 25015G25KT 220V290 5000 // BKN009/// BKN012/// BKN023/// 14/13 Q1021
01:20
V
15 °C 10 km+ 3.900 ft 240° 240° 12 kt METAR EDLW 052320Z AUTO 24012KT 9999 // FEW010/// BKN039/// BKN050/// 15/13 Q1020
00:50
M
15 °C 10 km+ 1.900 ft 240° 240° 14 - 24 kt METAR EDLW 052250Z AUTO 24014G24KT 220V280 9999 // FEW010/// BKN019/// OVC031/// 15/13 Q1019
00:20
M
17 °C 10 km+ 2.700 ft 220° 220° 16 kt METAR EDLW 052220Z AUTO 22016KT 9999 // FEW010/// OVC027/// 17/13 Q1018

5 ottobre 2022

Tempo Codice Tempo metereologico Temp. Vista Base nuvolosa Vento METAR/SPECI
23:50
V
18 °C 10 km+ 3.000 ft 220° 220° 17 kt METAR EDLW 052150Z AUTO 22017KT 9999 // BKN030/// BKN037/// BKN046/// 18/12 Q1018
23:20
V
18 °C 10 km+ 4.300 ft 210° 210° 16 kt METAR EDLW 052120Z AUTO 21016KT 9999 // FEW038/// BKN043/// OVC066/// 18/12 Q1018
22:50
V
18 °C 10 km+ 7.200 ft 210° 210° 12 kt METAR EDLW 052050Z 21012KT 9999 FEW044 SCT050 OVC072 18/12 Q1018
22:20
V
17 °C 10 km+ - 200° 200° 12 kt METAR EDLW 052020Z 20012KT 9999 FEW036 17/12 Q1017
21:50
V
17 °C 10 km+ 3.500 ft 210° 210° 12 kt METAR EDLW 051950Z 21012KT 9999 BKN035 17/11 Q1017
21:20
V
17 °C 10 km+ 4.300 ft 220° 220° 13 kt METAR EDLW 051920Z 22013KT 9999 FEW035 BKN043 17/12 Q1017
20:50
V
17 °C 10 km+ - 230° 230° 13 kt METAR EDLW 051850Z 23013KT 9999 FEW048 17/12 Q1017
20:20
V
17 °C 10 km+ - 240° 240° 13 kt METAR EDLW 051820Z 24013KT 9999 FEW034 17/12 Q1017
19:50
V
17 °C 10 km+ - 210° 210° 14 kt METAR EDLW 051750Z 21014KT 9999 FEW041 SCT049 17/12 Q1016
19:20
V
18 °C 10 km+ - 200° 200° 13 kt METAR EDLW 051720Z 20013KT 9999 SCT041 18/12 Q1015
18:50
V
18 °C 10 km+ - 200° 200° 12 kt METAR EDLW 051650Z 20012KT CAVOK 18/12 Q1015
18:20
V
19 °C 10 km+ - 200° 200° 13 kt METAR EDLW 051620Z 20013KT CAVOK 19/11 Q1014
17:50
V
19 °C 10 km+ - 210° 210° 14 kt METAR EDLW 051550Z 21014KT CAVOK 19/11 Q1014
17:20
V
19 °C 10 km+ - 200° 200° 16 kt METAR EDLW 051520Z 20016KT CAVOK 19/11 Q1014
16:50
V
20 °C 10 km+ - 200° 200° 13 kt METAR EDLW 051450Z 20013KT 160V230 CAVOK 20/11 Q1014
16:20
V
20 °C 10 km+ - 190° 190° 16 kt METAR EDLW 051420Z 19016KT CAVOK 20/11 Q1014
15:50
V
20 °C 10 km+ - 200° 200° 15 kt METAR EDLW 051350Z 20015KT CAVOK 20/11 Q1014
15:20
V
19 °C 10 km+ - 190° 190° 11 kt METAR EDLW 051320Z 19011KT 150V210 CAVOK 19/12 Q1014
14:50
V
19 °C 10 km+ - 180° 180° 13 kt METAR EDLW 051250Z 18013KT 150V210 CAVOK 19/12 Q1015
14:20
V
18 °C 10 km+ - 200° 200° 13 kt METAR EDLW 051220Z 20013KT 170V230 9999 FEW030 18/11 Q1016
13:50
M
17 °C 10 km+ 2.900 ft 210° 210° 14 kt METAR EDLW 051150Z 21014KT 9999 BKN029 17/11 Q1016
13:20
V
16 °C 10 km+ 3.000 ft 210° 210° 14 kt METAR EDLW 051120Z 21014KT 9999 BKN030 16/11 Q1017
12:50
V
16 °C 10 km+ 3.300 ft 200° 200° 14 kt METAR EDLW 051050Z 20014KT 9999 BKN033 16/11 Q1017
12:20
V
17 °C 10 km+ 3.400 ft 200° 200° 12 kt METAR EDLW 051020Z 20012KT 9999 OVC034 17/12 Q1017
11:50
V
16 °C 10 km+ 3.400 ft 200° 200° 13 kt METAR EDLW 050950Z 20013KT 9999 OVC034 16/11 Q1017
11:20
V
15 °C 10 km+ 3.100 ft 200° 200° 11 kt METAR EDLW 050920Z 20011KT 9999 OVC031 15/11 Q1017
10:50
M
15 °C 10 km+ 2.600 ft 210° 210° 12 kt METAR EDLW 050850Z 21012KT 9999 OVC026 15/10 Q1017
10:20
M
15 °C 10 km+ 2.700 ft 210° 210° 13 kt METAR EDLW 050820Z 21013KT 9999 OVC027 15/11 Q1017
09:50
M
14 °C 10 km+ 2.800 ft 190° 190° 10 kt METAR EDLW 050750Z 19010KT 9999 OVC028 14/10 Q1017
09:20
V
13 °C 10 km+ 3.000 ft 190° 190° 9 kt METAR EDLW 050720Z 19009KT 9999 BKN030 13/10 Q1017
08:50
V
13 °C 10 km+ 3.000 ft 180° 180° 10 kt METAR EDLW 050650Z 18010KT 9999 BKN030 13/10 Q1017
08:20
V
12 °C 10 km+ 3.000 ft 190° 190° 11 kt METAR EDLW 050620Z 19011KT 9999 BKN030 12/10 Q1017
07:50
V
12 °C 10 km+ 3.000 ft 190° 190° 10 kt METAR EDLW 050550Z 19010KT 9999 BKN030 12/09 Q1017
07:20
V
12 °C 10 km+ - 190° 190° 10 kt METAR EDLW 050520Z 19010KT 9999 FEW031 12/09 Q1017
06:50
V
12 °C 10 km+ - 190° 190° 10 kt METAR EDLW 050450Z 19010KT 9999 SCT030 12/09 Q1017
06:20
V
12 °C 10 km+ - 190° 190° 10 kt METAR EDLW 050420Z 19010KT 9999 FEW030 12/10 Q1017
05:50
V
12 °C 10 km+ - 180° 180° 10 kt METAR EDLW 050350Z 18010KT CAVOK 12/09 Q1017
05:20
V
12 °C 10 km+ - 180° 180° 9 kt METAR EDLW 050320Z 18009KT CAVOK 12/10 Q1018
04:50
V
12 °C 10 km+ - 190° 190° 9 kt METAR EDLW 050250Z AUTO 19009KT 9999 // FEW220/// 12/09 Q1018
04:20
V
12 °C 10 km+ - 180° 180° 10 kt METAR EDLW 050220Z AUTO 18010KT 9999 // FEW220/// 12/09 Q1018
03:50
V
12 °C 10 km+ - 180° 180° 10 kt METAR EDLW 050150Z AUTO 18010KT 9999 // FEW140/// 12/09 Q1018
03:20
V
12 °C 10 km+ - 180° 180° 9 kt METAR EDLW 050120Z AUTO 18009KT 9999 // FEW220/// 12/09 Q1018
02:50
V
12 °C 10 km+ - 180° 180° 8 kt METAR EDLW 050050Z AUTO 18008KT 9999 // FEW220/// 12/10 Q1018
02:20
V
12 °C 10 km+ - 180° 180° 8 kt METAR EDLW 050020Z AUTO 18008KT 9999 // FEW220/// 12/09 Q1019
01:50
V
13 °C 10 km+ - 180° 180° 8 kt METAR EDLW 042350Z AUTO 18008KT 9999 // FEW220/// 13/09 Q1019
01:20
V
12 °C 10 km+ - 190° 190° 9 kt METAR EDLW 042320Z AUTO 19009KT 9999 // NCD 12/09 Q1019
00:50
V
13 °C 10 km+ - 190° 190° 10 kt METAR EDLW 042250Z AUTO 19010KT 9999 // NCD 13/09 Q1019
00:20
V
13 °C 10 km+ - 190° 190° 9 kt METAR EDLW 042220Z AUTO 19009KT 9999 // NCD 13/09 Q1019

4 ottobre 2022

Tempo Codice Tempo metereologico Temp. Vista Base nuvolosa Vento METAR/SPECI
23:50
V
13 °C 10 km+ - 180° 180° 8 kt METAR EDLW 042150Z AUTO 18008KT 9999 // NCD 13/09 Q1019
23:20
V
11 °C 10 km+ - 190° 190° 8 kt METAR EDLW 042120Z AUTO 19008KT 9999 // NCD 11/08 Q1019
22:50
V
13 °C 10 km+ - 190° 190° 10 kt METAR EDLW 042050Z 19010KT CAVOK 13/09 Q1019
22:20
V
13 °C 10 km+ - 200° 200° 10 kt METAR EDLW 042020Z 20010KT CAVOK 13/10 Q1019
21:50
V
14 °C 10 km+ - 210° 210° 9 kt METAR EDLW 041950Z 21009KT CAVOK 14/10 Q1019
21:20
V
13 °C 10 km+ - 190° 190° 6 kt METAR EDLW 041920Z 19006KT CAVOK 13/10 Q1019
20:50
V
11 °C 10 km+ - 190° 190° 5 kt METAR EDLW 041850Z 19005KT CAVOK 11/08 Q1019
20:20
V
12 °C 10 km+ - 170° 170° 6 kt METAR EDLW 041820Z 17006KT 150V230 CAVOK 12/08 Q1019
19:50
V
13 °C 10 km+ - 160° 160° 5 kt METAR EDLW 041750Z 16005KT CAVOK 13/09 Q1019
19:20
V
15 °C 10 km+ - 180° 180° 4 kt METAR EDLW 041720Z 18004KT CAVOK 15/09 Q1019
18:50
V
15 °C 10 km+ - 210° 210° 5 kt METAR EDLW 041650Z 21005KT CAVOK 15/09 Q1019
18:20
V
15 °C 10 km+ - 230° 230° 5 kt METAR EDLW 041620Z 23005KT CAVOK 15/09 Q1019
17:50
V
17 °C 10 km+ - 210° 210° 6 kt METAR EDLW 041550Z 21006KT CAVOK 17/09 Q1019
17:20
V
18 °C 10 km+ - 210° 210° 8 kt METAR EDLW 041520Z 21008KT CAVOK 18/08 Q1019
16:50
V
19 °C 10 km+ - 210° 210° 9 kt METAR EDLW 041450Z 21009KT 180V240 CAVOK 19/07 Q1019
16:20
V
19 °C 10 km+ - 210° 210° 10 kt METAR EDLW 041420Z 21010KT CAVOK 19/08 Q1019
15:50
V
19 °C 10 km+ - 210° 210° 8 kt METAR EDLW 041350Z 21008KT 180V250 CAVOK 19/08 Q1019
Dati più vecchi

Noi e le terze parti seguiamo il tuo comportamento in internet sul nostro sito web con i cookie. Se continui, riteniamo che tu sia d'accordo con la nostra politica sui cookie. Per saperne di più